sensor_id;sensor_type;location;lat;lon;timestamp;P1;durP1;ratioP1;P2;durP2;ratioP2
49460;SDS011;35355;49.198;-0.368;2023-04-29T00:00:26;5.82;;;3.85;;
49460;SDS011;35355;49.198;-0.368;2023-04-29T00:02:51;6.20;;;3.78;;
49460;SDS011;35355;49.198;-0.368;2023-04-29T00:05:16;7.53;;;4.85;;
49460;SDS011;35355;49.198;-0.368;2023-04-29T00:07:42;6.63;;;4.15;;
49460;SDS011;35355;49.198;-0.368;2023-04-29T00:10:08;7.65;;;4.28;;
49460;SDS011;35355;49.198;-0.368;2023-04-29T00:12:33;8.50;;;4.57;;
49460;SDS011;35355;49.198;-0.368;2023-04-29T00:14:59;7.95;;;4.60;;
49460;SDS011;35355;49.198;-0.368;2023-04-29T00:17:26;9.48;;;4.68;;
49460;SDS011;35355;49.198;-0.368;2023-04-29T00:19:52;7.07;;;4.85;;
49460;SDS011;35355;49.198;-0.368;2023-04-29T00:22:18;7.65;;;4.88;;
49460;SDS011;35355;49.198;-0.368;2023-04-29T00:24:45;5.43;;;3.92;;
49460;SDS011;35355;49.198;-0.368;2023-04-29T00:27:11;8.50;;;4.40;;
49460;SDS011;35355;49.198;-0.368;2023-04-29T00:29:36;9.40;;;4.72;;
49460;SDS011;35355;49.198;-0.368;2023-04-29T00:32:02;5.53;;;3.97;;
49460;SDS011;35355;49.198;-0.368;2023-04-29T00:34:28;6.72;;;4.47;;
49460;SDS011;35355;49.198;-0.368;2023-04-29T00:36:53;8.55;;;4.82;;
49460;SDS011;35355;49.198;-0.368;2023-04-29T00:39:18;7.32;;;4.35;;
49460;SDS011;35355;49.198;-0.368;2023-04-29T00:41:44;6.25;;;4.57;;
49460;SDS011;35355;49.198;-0.368;2023-04-29T00:44:09;8.40;;;4.93;;
49460;SDS011;35355;49.198;-0.368;2023-04-29T00:46:35;7.57;;;4.65;;
49460;SDS011;35355;49.198;-0.368;2023-04-29T00:49:01;10.77;;;5.30;;
49460;SDS011;35355;49.198;-0.368;2023-04-29T00:51:26;6.55;;;4.45;;
49460;SDS011;35355;49.198;-0.368;2023-04-29T00:53:53;8.15;;;4.97;;
49460;SDS011;35355;49.198;-0.368;2023-04-29T00:56:19;7.25;;;4.63;;
49460;SDS011;35355;49.198;-0.368;2023-04-29T00:58:48;6.93;;;4.57;;
49460;SDS011;35355;49.198;-0.368;2023-04-29T01:01:15;8.23;;;4.88;;
49460;SDS011;35355;49.198;-0.368;2023-04-29T01:03:41;10.48;;;6.25;;
49460;SDS011;35355;49.198;-0.368;2023-04-29T01:09:05;10.65;;;6.03;;
49460;SDS011;35355;49.198;-0.368;2023-04-29T01:11:38;7.68;;;4.45;;
49460;SDS011;35355;49.198;-0.368;2023-04-29T01:14:28;7.15;;;5.07;;
49460;SDS011;35355;49.198;-0.368;2023-04-29T01:16:58;8.52;;;5.47;;
49460;SDS011;35355;49.198;-0.368;2023-04-29T01:19:46;10.25;;;5.35;;
49460;SDS011;35355;49.198;-0.368;2023-04-29T01:22:14;8.75;;;5.30;;
49460;SDS011;35355;49.198;-0.368;2023-04-29T01:24:41;9.60;;;5.60;;
49460;SDS011;35355;49.198;-0.368;2023-04-29T01:27:20;9.40;;;4.85;;
49460;SDS011;35355;49.198;-0.368;2023-04-29T01:33:49;7.80;;;4.95;;
49460;SDS011;35355;49.198;-0.368;2023-04-29T01:36:11;7.72;;;5.18;;
49460;SDS011;35355;49.198;-0.368;2023-04-29T01:43:39;8.85;;;5.78;;
49460;SDS011;35355;49.198;-0.368;2023-04-29T01:46:05;9.75;;;4.55;;
49460;SDS011;35355;49.198;-0.368;2023-04-29T01:48:33;7.18;;;5.00;;
49460;SDS011;35355;49.198;-0.368;2023-04-29T01:51:00;8.43;;;4.68;;
49460;SDS011;35355;49.198;-0.368;2023-04-29T01:53:26;8.00;;;5.45;;
49460;SDS011;35355;49.198;-0.368;2023-04-29T01:55:51;7.70;;;5.30;;
49460;SDS011;35355;49.198;-0.368;2023-04-29T01:58:16;12.35;;;6.25;;
49460;SDS011;35355;49.198;-0.368;2023-04-29T02:00:42;7.10;;;4.93;;
49460;SDS011;35355;49.198;-0.368;2023-04-29T02:03:07;11.80;;;5.60;;
49460;SDS011;35355;49.198;-0.368;2023-04-29T02:05:32;9.18;;;5.93;;
49460;SDS011;35355;49.198;-0.368;2023-04-29T02:07:58;7.78;;;4.88;;
49460;SDS011;35355;49.198;-0.368;2023-04-29T02:10:24;9.15;;;5.07;;
49460;SDS011;35355;49.198;-0.368;2023-04-29T02:12:50;9.70;;;5.82;;
49460;SDS011;35355;49.198;-0.368;2023-04-29T02:15:15;12.82;;;6.03;;
49460;SDS011;35355;49.198;-0.368;2023-04-29T02:17:41;9.38;;;6.10;;
49460;SDS011;35355;49.198;-0.368;2023-04-29T02:20:07;7.65;;;5.32;;
49460;SDS011;35355;49.198;-0.368;2023-04-29T02:22:34;9.10;;;5.38;;
49460;SDS011;35355;49.198;-0.368;2023-04-29T02:24:59;7.70;;;4.25;;
49460;SDS011;35355;49.198;-0.368;2023-04-29T02:27:24;11.00;;;5.30;;
49460;SDS011;35355;49.198;-0.368;2023-04-29T02:29:50;7.97;;;5.47;;
49460;SDS011;35355;49.198;-0.368;2023-04-29T02:32:15;8.73;;;5.95;;
49460;SDS011;35355;49.198;-0.368;2023-04-29T02:34:44;11.00;;;5.85;;
49460;SDS011;35355;49.198;-0.368;2023-04-29T02:37:09;11.32;;;5.90;;
49460;SDS011;35355;49.198;-0.368;2023-04-29T02:39:35;9.00;;;5.28;;
49460;SDS011;35355;49.198;-0.368;2023-04-29T02:42:00;9.90;;;5.47;;
49460;SDS011;35355;49.198;-0.368;2023-04-29T02:44:26;7.28;;;5.38;;
49460;SDS011;35355;49.198;-0.368;2023-04-29T02:46:52;9.43;;;5.30;;
49460;SDS011;35355;49.198;-0.368;2023-04-29T02:49:17;6.60;;;4.88;;
49460;SDS011;35355;49.198;-0.368;2023-04-29T02:51:43;7.03;;;5.55;;
49460;SDS011;35355;49.198;-0.368;2023-04-29T02:54:08;7.10;;;4.70;;
49460;SDS011;35355;49.198;-0.368;2023-04-29T02:56:35;8.68;;;5.32;;
49460;SDS011;35355;49.198;-0.368;2023-04-29T02:59:01;8.27;;;5.43;;
49460;SDS011;35355;49.198;-0.368;2023-04-29T03:01:26;11.60;;;4.80;;
49460;SDS011;35355;49.198;-0.368;2023-04-29T03:03:51;9.55;;;5.07;;
49460;SDS011;35355;49.198;-0.368;2023-04-29T03:06:17;9.05;;;5.57;;
49460;SDS011;35355;49.198;-0.368;2023-04-29T03:08:43;8.57;;;5.78;;
49460;SDS011;35355;49.198;-0.368;2023-04-29T03:11:08;8.07;;;5.75;;
49460;SDS011;35355;49.198;-0.368;2023-04-29T03:13:33;8.80;;;5.43;;
49460;SDS011;35355;49.198;-0.368;2023-04-29T03:15:59;8.52;;;4.70;;
49460;SDS011;35355;49.198;-0.368;2023-04-29T03:18:25;8.98;;;4.55;;
49460;SDS011;35355;49.198;-0.368;2023-04-29T03:20:50;7.97;;;5.65;;
49460;SDS011;35355;49.198;-0.368;2023-04-29T03:23:16;8.07;;;4.80;;
49460;SDS011;35355;49.198;-0.368;2023-04-29T03:25:41;9.15;;;5.20;;
49460;SDS011;35355;49.198;-0.368;2023-04-29T03:28:07;9.60;;;6.22;;
49460;SDS011;35355;49.198;-0.368;2023-04-29T03:30:32;9.65;;;5.53;;
49460;SDS011;35355;49.198;-0.368;2023-04-29T03:32:58;9.38;;;5.60;;
49460;SDS011;35355;49.198;-0.368;2023-04-29T03:35:23;12.90;;;6.80;;
49460;SDS011;35355;49.198;-0.368;2023-04-29T03:37:48;10.23;;;6.47;;
49460;SDS011;35355;49.198;-0.368;2023-04-29T03:40:14;10.68;;;6.65;;
49460;SDS011;35355;49.198;-0.368;2023-04-29T03:42:39;11.85;;;6.63;;
49460;SDS011;35355;49.198;-0.368;2023-04-29T03:45:05;8.75;;;6.03;;
49460;SDS011;35355;49.198;-0.368;2023-04-29T03:47:31;10.93;;;6.25;;
49460;SDS011;35355;49.198;-0.368;2023-04-29T03:49:56;8.80;;;5.97;;
49460;SDS011;35355;49.198;-0.368;2023-04-29T03:52:22;13.60;;;6.88;;
49460;SDS011;35355;49.198;-0.368;2023-04-29T03:54:47;12.57;;;6.70;;
49460;SDS011;35355;49.198;-0.368;2023-04-29T03:57:13;14.13;;;6.85;;
49460;SDS011;35355;49.198;-0.368;2023-04-29T03:59:38;12.30;;;6.72;;
49460;SDS011;35355;49.198;-0.368;2023-04-29T04:02:04;10.48;;;6.90;;
49460;SDS011;35355;49.198;-0.368;2023-04-29T04:04:29;12.05;;;6.30;;
49460;SDS011;35355;49.198;-0.368;2023-04-29T04:06:54;12.52;;;7.22;;
49460;SDS011;35355;49.198;-0.368;2023-04-29T04:09:20;11.85;;;6.75;;
49460;SDS011;35355;49.198;-0.368;2023-04-29T04:11:45;13.27;;;7.50;;
49460;SDS011;35355;49.198;-0.368;2023-04-29T04:14:11;13.32;;;7.22;;
49460;SDS011;35355;49.198;-0.368;2023-04-29T04:16:37;15.23;;;7.20;;
49460;SDS011;35355;49.198;-0.368;2023-04-29T04:19:02;14.75;;;7.22;;
49460;SDS011;35355;49.198;-0.368;2023-04-29T04:21:27;11.52;;;7.10;;
49460;SDS011;35355;49.198;-0.368;2023-04-29T04:23:54;12.48;;;7.20;;
49460;SDS011;35355;49.198;-0.368;2023-04-29T04:26:19;13.07;;;7.78;;
49460;SDS011;35355;49.198;-0.368;2023-04-29T04:28:45;13.25;;;6.90;;
49460;SDS011;35355;49.198;-0.368;2023-04-29T04:31:10;15.48;;;7.97;;
49460;SDS011;35355;49.198;-0.368;2023-04-29T04:33:38;15.10;;;6.97;;
49460;SDS011;35355;49.198;-0.368;2023-04-29T04:36:04;12.15;;;7.30;;
49460;SDS011;35355;49.198;-0.368;2023-04-29T04:38:30;12.18;;;7.30;;
49460;SDS011;35355;49.198;-0.368;2023-04-29T04:40:56;12.25;;;8.00;;
49460;SDS011;35355;49.198;-0.368;2023-04-29T04:43:22;15.10;;;8.15;;
49460;SDS011;35355;49.198;-0.368;2023-04-29T04:45:48;15.38;;;8.80;;
49460;SDS011;35355;49.198;-0.368;2023-04-29T04:48:13;13.18;;;8.07;;
49460;SDS011;35355;49.198;-0.368;2023-04-29T04:50:38;15.07;;;8.20;;
49460;SDS011;35355;49.198;-0.368;2023-04-29T04:53:04;13.55;;;8.63;;
49460;SDS011;35355;49.198;-0.368;2023-04-29T04:55:30;16.02;;;8.07;;
49460;SDS011;35355;49.198;-0.368;2023-04-29T04:57:57;15.60;;;8.73;;
49460;SDS011;35355;49.198;-0.368;2023-04-29T05:00:22;13.85;;;7.70;;
49460;SDS011;35355;49.198;-0.368;2023-04-29T05:02:48;13.80;;;7.97;;
49460;SDS011;35355;49.198;-0.368;2023-04-29T05:05:13;14.77;;;8.05;;
49460;SDS011;35355;49.198;-0.368;2023-04-29T05:07:38;14.77;;;8.85;;
49460;SDS011;35355;49.198;-0.368;2023-04-29T05:10:04;15.27;;;9.10;;
49460;SDS011;35355;49.198;-0.368;2023-04-29T05:12:30;17.98;;;8.68;;
49460;SDS011;35355;49.198;-0.368;2023-04-29T05:14:56;14.20;;;8.55;;
49460;SDS011;35355;49.198;-0.368;2023-04-29T05:17:22;14.63;;;8.57;;
49460;SDS011;35355;49.198;-0.368;2023-04-29T05:19:47;21.00;;;9.05;;
49460;SDS011;35355;49.198;-0.368;2023-04-29T05:22:13;21.13;;;9.70;;
49460;SDS011;35355;49.198;-0.368;2023-04-29T05:24:38;15.65;;;8.73;;
49460;SDS011;35355;49.198;-0.368;2023-04-29T05:27:04;18.25;;;8.82;;
49460;SDS011;35355;49.198;-0.368;2023-04-29T05:29:29;17.20;;;9.30;;
49460;SDS011;35355;49.198;-0.368;2023-04-29T05:31:55;15.77;;;9.75;;
49460;SDS011;35355;49.198;-0.368;2023-04-29T05:34:20;20.95;;;8.80;;
49460;SDS011;35355;49.198;-0.368;2023-04-29T05:36:46;15.35;;;7.53;;
49460;SDS011;35355;49.198;-0.368;2023-04-29T05:39:11;17.20;;;9.32;;
49460;SDS011;35355;49.198;-0.368;2023-04-29T05:41:36;17.10;;;8.20;;
49460;SDS011;35355;49.198;-0.368;2023-04-29T05:44:02;15.25;;;8.07;;
49460;SDS011;35355;49.198;-0.368;2023-04-29T05:46:27;18.95;;;9.52;;
49460;SDS011;35355;49.198;-0.368;2023-04-29T05:48:52;15.52;;;7.75;;
49460;SDS011;35355;49.198;-0.368;2023-04-29T05:51:18;17.92;;;8.73;;
49460;SDS011;35355;49.198;-0.368;2023-04-29T05:53:43;16.52;;;7.82;;
49460;SDS011;35355;49.198;-0.368;2023-04-29T05:56:08;14.45;;;7.90;;
49460;SDS011;35355;49.198;-0.368;2023-04-29T05:58:34;17.40;;;9.32;;
49460;SDS011;35355;49.198;-0.368;2023-04-29T06:01:00;14.70;;;8.05;;
49460;SDS011;35355;49.198;-0.368;2023-04-29T06:03:25;14.80;;;8.10;;
49460;SDS011;35355;49.198;-0.368;2023-04-29T06:05:51;15.65;;;8.38;;
49460;SDS011;35355;49.198;-0.368;2023-04-29T06:08:17;19.23;;;8.93;;
49460;SDS011;35355;49.198;-0.368;2023-04-29T06:10:42;16.40;;;8.23;;
49460;SDS011;35355;49.198;-0.368;2023-04-29T06:13:08;17.63;;;9.20;;
49460;SDS011;35355;49.198;-0.368;2023-04-29T06:15:33;17.38;;;8.40;;
49460;SDS011;35355;49.198;-0.368;2023-04-29T06:17:59;15.65;;;8.77;;
49460;SDS011;35355;49.198;-0.368;2023-04-29T06:20:24;18.20;;;8.73;;
49460;SDS011;35355;49.198;-0.368;2023-04-29T06:22:50;19.00;;;8.38;;
49460;SDS011;35355;49.198;-0.368;2023-04-29T06:25:15;15.98;;;8.75;;
49460;SDS011;35355;49.198;-0.368;2023-04-29T06:27:41;12.00;;;7.28;;
49460;SDS011;35355;49.198;-0.368;2023-04-29T06:30:06;15.70;;;7.85;;
49460;SDS011;35355;49.198;-0.368;2023-04-29T06:32:32;14.15;;;8.10;;
49460;SDS011;35355;49.198;-0.368;2023-04-29T06:34:57;17.67;;;8.77;;
49460;SDS011;35355;49.198;-0.368;2023-04-29T06:37:23;15.68;;;8.52;;
49460;SDS011;35355;49.198;-0.368;2023-04-29T06:39:48;16.92;;;8.65;;
49460;SDS011;35355;49.198;-0.368;2023-04-29T06:42:13;17.20;;;8.45;;
49460;SDS011;35355;49.198;-0.368;2023-04-29T06:44:39;14.50;;;8.15;;
49460;SDS011;35355;49.198;-0.368;2023-04-29T06:47:04;14.55;;;7.85;;
49460;SDS011;35355;49.198;-0.368;2023-04-29T06:49:30;14.82;;;8.88;;
49460;SDS011;35355;49.198;-0.368;2023-04-29T06:51:55;18.58;;;7.72;;
49460;SDS011;35355;49.198;-0.368;2023-04-29T06:54:20;17.27;;;8.50;;
49460;SDS011;35355;49.198;-0.368;2023-04-29T06:56:46;15.50;;;8.13;;
49460;SDS011;35355;49.198;-0.368;2023-04-29T06:59:12;14.55;;;8.25;;
49460;SDS011;35355;49.198;-0.368;2023-04-29T07:01:39;18.48;;;8.50;;
49460;SDS011;35355;49.198;-0.368;2023-04-29T07:04:04;17.67;;;8.88;;
49460;SDS011;35355;49.198;-0.368;2023-04-29T07:06:30;12.98;;;7.82;;
49460;SDS011;35355;49.198;-0.368;2023-04-29T07:08:55;14.63;;;8.45;;
49460;SDS011;35355;49.198;-0.368;2023-04-29T07:11:21;16.52;;;8.60;;
49460;SDS011;35355;49.198;-0.368;2023-04-29T07:13:48;14.77;;;8.13;;
49460;SDS011;35355;49.198;-0.368;2023-04-29T07:16:17;13.98;;;8.13;;
49460;SDS011;35355;49.198;-0.368;2023-04-29T07:18:45;16.58;;;9.23;;
49460;SDS011;35355;49.198;-0.368;2023-04-29T07:21:11;14.13;;;8.55;;
49460;SDS011;35355;49.198;-0.368;2023-04-29T07:23:37;16.55;;;8.55;;
49460;SDS011;35355;49.198;-0.368;2023-04-29T07:26:12;17.27;;;8.10;;
49460;SDS011;35355;49.198;-0.368;2023-04-29T07:28:39;15.60;;;8.48;;
49460;SDS011;35355;49.198;-0.368;2023-04-29T07:31:06;14.43;;;8.07;;
49460;SDS011;35355;49.198;-0.368;2023-04-29T07:33:32;13.35;;;8.00;;
49460;SDS011;35355;49.198;-0.368;2023-04-29T07:35:58;16.90;;;8.60;;
49460;SDS011;35355;49.198;-0.368;2023-04-29T07:38:23;12.77;;;7.32;;
49460;SDS011;35355;49.198;-0.368;2023-04-29T07:40:49;14.68;;;7.50;;
49460;SDS011;35355;49.198;-0.368;2023-04-29T07:43:14;15.57;;;8.00;;
49460;SDS011;35355;49.198;-0.368;2023-04-29T07:45:40;13.35;;;7.18;;
49460;SDS011;35355;49.198;-0.368;2023-04-29T07:48:05;14.02;;;8.45;;
49460;SDS011;35355;49.198;-0.368;2023-04-29T07:50:34;11.77;;;7.10;;
49460;SDS011;35355;49.198;-0.368;2023-04-29T07:53:00;12.38;;;7.38;;
49460;SDS011;35355;49.198;-0.368;2023-04-29T07:55:26;12.68;;;7.65;;
49460;SDS011;35355;49.198;-0.368;2023-04-29T07:57:53;17.17;;;7.88;;
49460;SDS011;35355;49.198;-0.368;2023-04-29T08:00:19;22.88;;;9.65;;
49460;SDS011;35355;49.198;-0.368;2023-04-29T08:02:45;15.50;;;8.77;;
49460;SDS011;35355;49.198;-0.368;2023-04-29T08:05:11;17.83;;;9.40;;
49460;SDS011;35355;49.198;-0.368;2023-04-29T08:07:36;17.02;;;9.00;;
49460;SDS011;35355;49.198;-0.368;2023-04-29T08:10:01;16.60;;;9.30;;
49460;SDS011;35355;49.198;-0.368;2023-04-29T08:12:27;23.15;;;9.50;;
49460;SDS011;35355;49.198;-0.368;2023-04-29T08:14:52;19.00;;;8.75;;
49460;SDS011;35355;49.198;-0.368;2023-04-29T08:17:18;21.50;;;10.27;;
49460;SDS011;35355;49.198;-0.368;2023-04-29T08:19:43;15.38;;;8.50;;
49460;SDS011;35355;49.198;-0.368;2023-04-29T08:22:08;17.38;;;8.70;;
49460;SDS011;35355;49.198;-0.368;2023-04-29T08:24:36;17.70;;;8.90;;
49460;SDS011;35355;49.198;-0.368;2023-04-29T08:27:01;16.90;;;8.27;;
49460;SDS011;35355;49.198;-0.368;2023-04-29T08:29:29;18.52;;;8.70;;
49460;SDS011;35355;49.198;-0.368;2023-04-29T08:31:56;20.65;;;10.40;;
49460;SDS011;35355;49.198;-0.368;2023-04-29T08:34:22;17.98;;;10.23;;
49460;SDS011;35355;49.198;-0.368;2023-04-29T08:36:47;20.15;;;9.98;;
49460;SDS011;35355;49.198;-0.368;2023-04-29T08:39:13;19.00;;;9.95;;
49460;SDS011;35355;49.198;-0.368;2023-04-29T08:41:38;14.80;;;8.25;;
49460;SDS011;35355;49.198;-0.368;2023-04-29T08:44:03;16.27;;;9.60;;
49460;SDS011;35355;49.198;-0.368;2023-04-29T08:46:29;21.17;;;10.32;;
49460;SDS011;35355;49.198;-0.368;2023-04-29T08:48:56;19.52;;;10.18;;
49460;SDS011;35355;49.198;-0.368;2023-04-29T08:51:22;22.13;;;11.73;;
49460;SDS011;35355;49.198;-0.368;2023-04-29T08:53:48;25.65;;;12.68;;
49460;SDS011;35355;49.198;-0.368;2023-04-29T08:56:17;22.30;;;11.90;;
49460;SDS011;35355;49.198;-0.368;2023-04-29T08:58:45;21.95;;;11.02;;
49460;SDS011;35355;49.198;-0.368;2023-04-29T09:01:11;20.58;;;10.38;;
49460;SDS011;35355;49.198;-0.368;2023-04-29T09:06:08;19.17;;;11.48;;
49460;SDS011;35355;49.198;-0.368;2023-04-29T09:08:35;32.97;;;13.48;;
49460;SDS011;35355;49.198;-0.368;2023-04-29T09:11:01;26.45;;;13.32;;
49460;SDS011;35355;49.198;-0.368;2023-04-29T09:13:29;24.85;;;12.18;;
49460;SDS011;35355;49.198;-0.368;2023-04-29T09:15:55;19.98;;;12.13;;
49460;SDS011;35355;49.198;-0.368;2023-04-29T09:21:11;21.83;;;11.38;;
49460;SDS011;35355;49.198;-0.368;2023-04-29T09:23:37;23.83;;;10.57;;
49460;SDS011;35355;49.198;-0.368;2023-04-29T09:26:02;30.58;;;15.20;;
49460;SDS011;35355;49.198;-0.368;2023-04-29T09:28:27;30.42;;;15.73;;
49460;SDS011;35355;49.198;-0.368;2023-04-29T09:30:53;33.25;;;16.35;;
49460;SDS011;35355;49.198;-0.368;2023-04-29T09:33:18;30.88;;;15.25;;
49460;SDS011;35355;49.198;-0.368;2023-04-29T09:35:44;25.13;;;12.63;;
49460;SDS011;35355;49.198;-0.368;2023-04-29T09:38:14;19.38;;;10.77;;
49460;SDS011;35355;49.198;-0.368;2023-04-29T09:40:41;20.05;;;10.73;;
49460;SDS011;35355;49.198;-0.368;2023-04-29T09:43:11;21.85;;;10.45;;
49460;SDS011;35355;49.198;-0.368;2023-04-29T09:45:42;21.77;;;11.73;;
49460;SDS011;35355;49.198;-0.368;2023-04-29T09:48:11;20.38;;;10.43;;
49460;SDS011;35355;49.198;-0.368;2023-04-29T09:50:37;21.45;;;10.98;;
49460;SDS011;35355;49.198;-0.368;2023-04-29T09:53:04;16.55;;;9.75;;
49460;SDS011;35355;49.198;-0.368;2023-04-29T09:55:33;23.05;;;10.40;;
49460;SDS011;35355;49.198;-0.368;2023-04-29T09:58:01;20.27;;;10.57;;
49460;SDS011;35355;49.198;-0.368;2023-04-29T10:00:30;21.45;;;10.77;;
49460;SDS011;35355;49.198;-0.368;2023-04-29T10:02:58;21.90;;;11.30;;
49460;SDS011;35355;49.198;-0.368;2023-04-29T10:05:26;19.52;;;10.25;;
49460;SDS011;35355;49.198;-0.368;2023-04-29T10:07:54;20.98;;;10.77;;
49460;SDS011;35355;49.198;-0.368;2023-04-29T10:10:20;18.55;;;11.00;;
49460;SDS011;35355;49.198;-0.368;2023-04-29T10:12:47;18.65;;;10.45;;
49460;SDS011;35355;49.198;-0.368;2023-04-29T10:15:19;25.25;;;11.75;;
49460;SDS011;35355;49.198;-0.368;2023-04-29T10:18:07;20.85;;;12.82;;
49460;SDS011;35355;49.198;-0.368;2023-04-29T10:20:46;23.02;;;12.65;;
49460;SDS011;35355;49.198;-0.368;2023-04-29T10:23:12;27.58;;;12.80;;
49460;SDS011;35355;49.198;-0.368;2023-04-29T10:25:39;26.38;;;15.75;;
49460;SDS011;35355;49.198;-0.368;2023-04-29T10:28:08;23.60;;;14.02;;
49460;SDS011;35355;49.198;-0.368;2023-04-29T10:30:38;28.75;;;14.52;;
49460;SDS011;35355;49.198;-0.368;2023-04-29T10:33:06;18.00;;;11.73;;
49460;SDS011;35355;49.198;-0.368;2023-04-29T10:35:34;21.70;;;12.60;;
49460;SDS011;35355;49.198;-0.368;2023-04-29T10:38:01;21.02;;;12.30;;
49460;SDS011;35355;49.198;-0.368;2023-04-29T10:40:44;19.13;;;10.73;;
49460;SDS011;35355;49.198;-0.368;2023-04-29T10:43:10;21.75;;;12.27;;
49460;SDS011;35355;49.198;-0.368;2023-04-29T10:45:36;22.70;;;12.00;;
49460;SDS011;35355;49.198;-0.368;2023-04-29T10:50:34;16.80;;;9.15;;
49460;SDS011;35355;49.198;-0.368;2023-04-29T10:53:07;16.42;;;9.85;;
49460;SDS011;35355;49.198;-0.368;2023-04-29T10:55:36;18.52;;;9.75;;
49460;SDS011;35355;49.198;-0.368;2023-04-29T10:58:03;17.77;;;9.60;;
49460;SDS011;35355;49.198;-0.368;2023-04-29T11:00:29;16.75;;;9.48;;
49460;SDS011;35355;49.198;-0.368;2023-04-29T11:02:57;16.58;;;9.65;;
49460;SDS011;35355;49.198;-0.368;2023-04-29T11:05:34;17.58;;;9.93;;
49460;SDS011;35355;49.198;-0.368;2023-04-29T11:08:10;21.00;;;10.15;;
49460;SDS011;35355;49.198;-0.368;2023-04-29T11:10:37;18.60;;;10.23;;
49460;SDS011;35355;49.198;-0.368;2023-04-29T11:13:22;15.80;;;10.00;;
49460;SDS011;35355;49.198;-0.368;2023-04-29T11:15:50;19.42;;;10.43;;
49460;SDS011;35355;49.198;-0.368;2023-04-29T11:18:18;17.90;;;9.02;;
49460;SDS011;35355;49.198;-0.368;2023-04-29T11:23:34;16.25;;;10.25;;
49460;SDS011;35355;49.198;-0.368;2023-04-29T11:26:00;17.83;;;10.30;;
49460;SDS011;35355;49.198;-0.368;2023-04-29T11:28:29;16.08;;;9.35;;
49460;SDS011;35355;49.198;-0.368;2023-04-29T11:30:56;15.57;;;9.95;;
49460;SDS011;35355;49.198;-0.368;2023-04-29T11:33:25;18.95;;;10.32;;
49460;SDS011;35355;49.198;-0.368;2023-04-29T11:35:52;18.83;;;10.90;;
49460;SDS011;35355;49.198;-0.368;2023-04-29T11:38:27;17.95;;;10.52;;
49460;SDS011;35355;49.198;-0.368;2023-04-29T11:40:58;21.50;;;11.15;;
49460;SDS011;35355;49.198;-0.368;2023-04-29T11:43:24;15.93;;;10.27;;
49460;SDS011;35355;49.198;-0.368;2023-04-29T11:45:50;17.92;;;9.93;;
49460;SDS011;35355;49.198;-0.368;2023-04-29T11:48:17;17.95;;;10.30;;
49460;SDS011;35355;49.198;-0.368;2023-04-29T11:50:47;19.38;;;10.43;;
49460;SDS011;35355;49.198;-0.368;2023-04-29T11:53:15;16.27;;;10.13;;
49460;SDS011;35355;49.198;-0.368;2023-04-29T11:55:43;14.75;;;9.32;;
49460;SDS011;35355;49.198;-0.368;2023-04-29T11:58:09;15.63;;;10.25;;
49460;SDS011;35355;49.198;-0.368;2023-04-29T12:00:35;19.65;;;10.80;;
49460;SDS011;35355;49.198;-0.368;2023-04-29T12:03:01;18.42;;;10.55;;
49460;SDS011;35355;49.198;-0.368;2023-04-29T12:05:31;17.20;;;10.05;;
49460;SDS011;35355;49.198;-0.368;2023-04-29T12:07:56;15.98;;;9.68;;
49460;SDS011;35355;49.198;-0.368;2023-04-29T12:10:21;17.25;;;9.15;;
49460;SDS011;35355;49.198;-0.368;2023-04-29T12:12:47;15.05;;;8.85;;
49460;SDS011;35355;49.198;-0.368;2023-04-29T12:15:12;17.13;;;9.32;;
49460;SDS011;35355;49.198;-0.368;2023-04-29T12:17:38;15.05;;;8.25;;
49460;SDS011;35355;49.198;-0.368;2023-04-29T12:20:07;14.52;;;8.93;;
49460;SDS011;35355;49.198;-0.368;2023-04-29T12:22:34;18.23;;;9.95;;
49460;SDS011;35355;49.198;-0.368;2023-04-29T12:25:03;13.02;;;7.97;;
49460;SDS011;35355;49.198;-0.368;2023-04-29T12:27:29;14.32;;;8.25;;
49460;SDS011;35355;49.198;-0.368;2023-04-29T12:29:55;14.25;;;7.57;;
49460;SDS011;35355;49.198;-0.368;2023-04-29T12:32:22;17.38;;;8.80;;
49460;SDS011;35355;49.198;-0.368;2023-04-29T12:34:49;13.10;;;7.35;;
49460;SDS011;35355;49.198;-0.368;2023-04-29T12:37:16;17.65;;;9.13;;
49460;SDS011;35355;49.198;-0.368;2023-04-29T12:39:42;16.40;;;9.90;;
49460;SDS011;35355;49.198;-0.368;2023-04-29T12:42:13;15.88;;;9.07;;
49460;SDS011;35355;49.198;-0.368;2023-04-29T12:44:40;17.23;;;9.70;;
49460;SDS011;35355;49.198;-0.368;2023-04-29T12:47:09;15.93;;;9.27;;
49460;SDS011;35355;49.198;-0.368;2023-04-29T12:49:35;15.23;;;8.77;;
49460;SDS011;35355;49.198;-0.368;2023-04-29T12:52:02;17.50;;;9.27;;
49460;SDS011;35355;49.198;-0.368;2023-04-29T12:54:28;18.27;;;9.88;;
49460;SDS011;35355;49.198;-0.368;2023-04-29T12:56:54;19.50;;;9.98;;
49460;SDS011;35355;49.198;-0.368;2023-04-29T12:59:19;19.23;;;9.82;;
49460;SDS011;35355;49.198;-0.368;2023-04-29T13:01:44;24.65;;;10.85;;
49460;SDS011;35355;49.198;-0.368;2023-04-29T13:04:10;20.88;;;11.05;;
49460;SDS011;35355;49.198;-0.368;2023-04-29T13:06:36;26.17;;;12.05;;
49460;SDS011;35355;49.198;-0.368;2023-04-29T13:09:08;26.60;;;11.75;;
49460;SDS011;35355;49.198;-0.368;2023-04-29T13:11:36;27.50;;;11.60;;
49460;SDS011;35355;49.198;-0.368;2023-04-29T13:14:04;19.20;;;9.75;;
49460;SDS011;35355;49.198;-0.368;2023-04-29T13:16:33;33.05;;;12.90;;
49460;SDS011;35355;49.198;-0.368;2023-04-29T13:18:59;27.17;;;12.00;;
49460;SDS011;35355;49.198;-0.368;2023-04-29T13:21:25;45.05;;;16.83;;
49460;SDS011;35355;49.198;-0.368;2023-04-29T13:23:51;48.20;;;19.08;;
49460;SDS011;35355;49.198;-0.368;2023-04-29T13:26:17;43.38;;;18.05;;
49460;SDS011;35355;49.198;-0.368;2023-04-29T13:28:42;45.30;;;19.48;;
49460;SDS011;35355;49.198;-0.368;2023-04-29T13:31:08;53.50;;;19.65;;
49460;SDS011;35355;49.198;-0.368;2023-04-29T13:33:33;48.28;;;18.42;;
49460;SDS011;35355;49.198;-0.368;2023-04-29T13:35:58;46.15;;;17.92;;
49460;SDS011;35355;49.198;-0.368;2023-04-29T13:38:24;38.67;;;17.23;;
49460;SDS011;35355;49.198;-0.368;2023-04-29T13:40:49;45.50;;;17.55;;
49460;SDS011;35355;49.198;-0.368;2023-04-29T13:43:15;41.88;;;18.92;;
49460;SDS011;35355;49.198;-0.368;2023-04-29T13:45:41;42.78;;;16.77;;
49460;SDS011;35355;49.198;-0.368;2023-04-29T13:48:06;35.22;;;16.25;;
49460;SDS011;35355;49.198;-0.368;2023-04-29T13:50:32;29.92;;;14.88;;
49460;SDS011;35355;49.198;-0.368;2023-04-29T13:52:57;31.75;;;14.68;;
49460;SDS011;35355;49.198;-0.368;2023-04-29T13:55:23;31.58;;;13.85;;
49460;SDS011;35355;49.198;-0.368;2023-04-29T13:57:48;32.03;;;16.13;;
49460;SDS011;35355;49.198;-0.368;2023-04-29T14:00:14;29.33;;;14.10;;
49460;SDS011;35355;49.198;-0.368;2023-04-29T14:02:40;34.33;;;14.82;;
49460;SDS011;35355;49.198;-0.368;2023-04-29T14:05:07;24.10;;;13.48;;
49460;SDS011;35355;49.198;-0.368;2023-04-29T14:07:34;31.60;;;14.15;;
49460;SDS011;35355;49.198;-0.368;2023-04-29T14:09:59;26.70;;;12.95;;
49460;SDS011;35355;49.198;-0.368;2023-04-29T14:12:25;28.40;;;13.55;;
49460;SDS011;35355;49.198;-0.368;2023-04-29T14:14:50;26.75;;;13.10;;
49460;SDS011;35355;49.198;-0.368;2023-04-29T14:17:15;29.55;;;13.88;;
49460;SDS011;35355;49.198;-0.368;2023-04-29T14:19:41;26.23;;;14.80;;
49460;SDS011;35355;49.198;-0.368;2023-04-29T14:22:06;29.15;;;14.35;;
49460;SDS011;35355;49.198;-0.368;2023-04-29T14:24:31;26.67;;;13.73;;
49460;SDS011;35355;49.198;-0.368;2023-04-29T14:26:57;26.73;;;14.23;;
49460;SDS011;35355;49.198;-0.368;2023-04-29T14:29:23;28.92;;;13.63;;
49460;SDS011;35355;49.198;-0.368;2023-04-29T14:31:48;26.63;;;14.18;;
49460;SDS011;35355;49.198;-0.368;2023-04-29T14:34:13;25.90;;;14.05;;
49460;SDS011;35355;49.198;-0.368;2023-04-29T14:36:39;30.15;;;13.98;;
49460;SDS011;35355;49.198;-0.368;2023-04-29T14:39:05;25.35;;;13.23;;